Big Bear Station Historical Data
Daily Summary for May 31, 2017 Units:  English    Metric   Both
« Previous Day
Next Day »
Daily Weekly Monthly Yearly Custom
  High: Low: Average:
Temperature: 67.1 °F 43.3 °F 55.9 °F
Dew Point: 45.7 °F 31.5 °F 38 °F
Humidity: 83 % 29 % 54 %
Wind Speed: 7.8 mph 0.0 mph 1.8 mph
Wind Gust: -999.0 mph - -
Wind:- - SSW
Pressure: 30.12 in 30.04 in -
Precipitation: 0.00 in    
Historical Graphs
 
 
Tabular Data for May 31, 2017
Time Temperature Dew Point Pressure Wind Wind Speed Wind Gust Humidity Rainfall Rate (Hourly)
00:02 51.1 °F 35.9 °F 30.12 in South 1.1 mph -999.0 mph 56 % 0 in
00:17 50.7 °F 35.6 °F 30.12 in Calm   -999.0 mph 56 % 0 in
00:33 50.4 °F 37.0 °F 30.12 in Calm   -999.0 mph 60 % 0 in
00:48 50.0 °F 35.8 °F 30.12 in Calm   -999.0 mph 58 % 0 in
01:03 49.5 °F 36.6 °F 30.11 in Calm   -999.0 mph 61 % 0 in
01:18 48.9 °F 38.0 °F 30.11 in Calm   -999.0 mph 66 % 0 in
01:34 48.6 °F 39.6 °F 30.11 in Calm   -999.0 mph 71 % 0 in
01:49 48.4 °F 40.5 °F 30.11 in Calm   -999.0 mph 74 % 0 in
02:04 48.0 °F 40.8 °F 30.11 in SSE 1.1 mph -999.0 mph 76 % 0 in
02:19 47.7 °F 40.5 °F 30.10 in South 1.7 mph -999.0 mph 76 % 0 in
02:34 47.3 °F 39.8 °F 30.10 in Calm   -999.0 mph 75 % 0 in
02:50 46.8 °F 38.6 °F 30.10 in Calm   -999.0 mph 73 % 0 in
03:05 46.6 °F 37.7 °F 30.10 in Calm   -999.0 mph 71 % 0 in
03:20 46.2 °F 37.0 °F 30.09 in South 1.7 mph -999.0 mph 70 % 0 in
03:35 46.0 °F 36.4 °F 30.09 in South 1.1 mph -999.0 mph 69 % 0 in
03:50 45.3 °F 35.7 °F 30.08 in Calm   -999.0 mph 69 % 0 in
04:06 45.0 °F 34.7 °F 30.08 in Calm   -999.0 mph 67 % 0 in
04:21 44.6 °F 35.1 °F 30.08 in South 2.2 mph -999.0 mph 69 % 0 in
04:36 44.2 °F 35.7 °F 30.08 in South 1.7 mph -999.0 mph 72 % 0 in
04:51 44.1 °F 36.7 °F 30.08 in South 2.2 mph -999.0 mph 75 % 0 in
05:06 43.7 °F 36.6 °F 30.08 in South 1.7 mph -999.0 mph 76 % 0 in
05:22 43.7 °F 37.3 °F 30.07 in South 1.7 mph -999.0 mph 78 % 0 in
05:37 43.5 °F 37.1 °F 30.07 in South 2.2 mph -999.0 mph 78 % 0 in
05:52 43.3 °F 36.6 °F 30.07 in South 2.2 mph -999.0 mph 77 % 0 in
06:08 43.7 °F 37.9 °F 30.08 in South 1.7 mph -999.0 mph 80 % 0 in
06:23 43.7 °F 38.3 °F 30.08 in Calm   -999.0 mph 81 % 0 in
06:38 44.2 °F 38.7 °F 30.08 in Calm   -999.0 mph 81 % 0 in
06:53 44.4 °F 39.6 °F 30.08 in Calm   -999.0 mph 83 % 0 in
07:08 45.0 °F 39.8 °F 30.08 in Calm   -999.0 mph 82 % 0 in
07:24 46.0 °F 39.5 °F 30.08 in Calm   -999.0 mph 78 % 0 in
07:39 48.0 °F 40.8 °F 30.08 in Calm   -999.0 mph 76 % 0 in
07:54 49.1 °F 42.2 °F 30.09 in Calm   -999.0 mph 77 % 0 in
08:09 50.4 °F 43.1 °F 30.09 in Calm   -999.0 mph 76 % 0 in
08:24 53.4 °F 45.7 °F 30.09 in NW 2.2 mph -999.0 mph 75 % 0 in
08:40 57.0 °F 42.4 °F 30.09 in NW 2.2 mph -999.0 mph 58 % 0 in
08:55 60.1 °F 39.2 °F 30.09 in Calm   -999.0 mph 46 % 0 in
09:10 62.8 °F 38.7 °F 30.09 in NNW 7.8 mph -999.0 mph 41 % 0 in
09:25 62.8 °F 38.7 °F 30.09 in ESE 1.7 mph -999.0 mph 41 % 0 in
09:41 63.9 °F 39.1 °F 30.09 in NW 3.2 mph -999.0 mph 40 % 0 in
09:56 64.8 °F 39.9 °F 30.08 in NNE 2.2 mph -999.0 mph 40 % 0 in
10:11 65.8 °F 38.8 °F 30.08 in North 1.1 mph -999.0 mph 37 % 0 in
10:26 66.9 °F 39.1 °F 30.09 in NW 4.2 mph -999.0 mph 36 % 0 in
10:41 65.1 °F 38.9 °F 30.08 in South 4.7 mph -999.0 mph 38 % 0 in
10:57 66.6 °F 38.8 °F 30.09 in South 3.7 mph -999.0 mph 36 % 0 in
11:12 66.7 °F 38.9 °F 30.08 in South 2.7 mph -999.0 mph 36 % 0 in
11:27 66.4 °F 38.6 °F 30.09 in SSW 4.7 mph -999.0 mph 36 % 0 in
11:42 66.2 °F 37.7 °F 30.09 in South 5.8 mph -999.0 mph 35 % 0 in
11:57 65.5 °F 36.4 °F 30.09 in ESE 4.2 mph -999.0 mph 34 % 0 in
12:13 64.4 °F 35.4 °F 30.09 in South 4.2 mph -999.0 mph 34 % 0 in
12:28 64.2 °F 35.2 °F 30.08 in South 3.7 mph -999.0 mph 34 % 0 in
12:59 64.6 °F 37.0 °F 30.08 in SE 5.3 mph -999.0 mph 36 % 0 in
13:14 64.8 °F 37.9 °F 30.08 in ESE 2.2 mph -999.0 mph 37 % 0 in
13:29 65.8 °F 38.1 °F 30.08 in South 2.7 mph -999.0 mph 36 % 0 in
13:44 66.0 °F 38.3 °F 30.07 in SSW 1.1 mph -999.0 mph 36 % 0 in
14:00 64.8 °F 37.9 °F 30.07 in SSE 2.7 mph -999.0 mph 37 % 0 in
14:15 67.1 °F 37.8 °F 30.07 in West 3.2 mph -999.0 mph 34 % 0 in
14:30 66.9 °F 33.6 °F 30.07 in South 2.2 mph -999.0 mph 29 % 0 in
14:45 65.8 °F 36.6 °F 30.07 in West 2.7 mph -999.0 mph 34 % 0 in
15:00 64.9 °F 39.3 °F 30.07 in NNW 1.7 mph -999.0 mph 39 % 0 in
15:16 65.1 °F 39.5 °F 30.07 in SSW 3.7 mph -999.0 mph 39 % 0 in
15:31 66.0 °F 40.3 °F 30.07 in SE 3.2 mph -999.0 mph 39 % 0 in
15:46 64.6 °F 39.1 °F 30.06 in SW 1.1 mph -999.0 mph 39 % 0 in
16:02 63.5 °F 39.4 °F 30.06 in SSW 2.7 mph -999.0 mph 41 % 0 in
16:17 64.0 °F 39.8 °F 30.06 in NNW 1.7 mph -999.0 mph 41 % 0 in
16:32 64.6 °F 39.7 °F 30.05 in NNE 3.2 mph -999.0 mph 40 % 0 in
16:48 64.9 °F 40.6 °F 30.05 in NW 4.2 mph -999.0 mph 41 % 0 in
17:03 64.0 °F 40.4 °F 30.05 in NNW 3.7 mph -999.0 mph 42 % 0 in
17:18 64.9 °F 43.1 °F 30.05 in WNW 3.7 mph -999.0 mph 45 % 0 in
17:33 64.0 °F 41.1 °F 30.05 in North 3.2 mph -999.0 mph 43 % 0 in
17:48 63.3 °F 39.8 °F 30.04 in Calm   -999.0 mph 42 % 0 in
18:04 64.0 °F 39.2 °F 30.04 in SSE 2.2 mph -999.0 mph 40 % 0 in
18:19 64.6 °F 37.0 °F 30.04 in South 1.7 mph -999.0 mph 36 % 0 in
18:34 61.9 °F 41.4 °F 30.04 in Calm   -999.0 mph 47 % 0 in
18:50 61.7 °F 41.3 °F 30.04 in Calm   -999.0 mph 47 % 0 in
19:05 59.9 °F 41.7 °F 30.04 in NNW 5.3 mph -999.0 mph 51 % 0 in
19:20 58.3 °F 41.7 °F 30.04 in NW 3.2 mph -999.0 mph 54 % 0 in
19:35 57.6 °F 42.0 °F 30.05 in NW 1.7 mph -999.0 mph 56 % 0 in
19:50 57.0 °F 41.9 °F 30.05 in ESE 1.1 mph -999.0 mph 57 % 0 in
20:06 57.0 °F 41.9 °F 30.05 in Calm   -999.0 mph 57 % 0 in
20:21 56.7 °F 40.2 °F 30.05 in Calm   -999.0 mph 54 % 0 in
20:36 56.7 °F 39.8 °F 30.04 in Calm   -999.0 mph 53 % 0 in
20:51 56.3 °F 38.4 °F 30.05 in SSW 2.7 mph -999.0 mph 51 % 0 in
21:06 55.6 °F 34.6 °F 30.04 in Calm   -999.0 mph 45 % 0 in
21:22 55.0 °F 32.9 °F 30.05 in Calm   -999.0 mph 43 % 0 in
21:37 54.5 °F 33.6 °F 30.05 in Calm   -999.0 mph 45 % 0 in
21:53 53.4 °F 31.5 °F 30.05 in South 2.2 mph -999.0 mph 43 % 0 in
22:08 52.7 °F 31.9 °F 30.05 in South 2.2 mph -999.0 mph 45 % 0 in
22:23 51.8 °F 33.2 °F 30.05 in Calm   -999.0 mph 49 % 0 in
22:38 51.1 °F 33.1 °F 30.05 in South 2.7 mph -999.0 mph 50 % 0 in
22:53 50.4 °F 32.9 °F 30.05 in Calm   -999.0 mph 51 % 0 in
23:09 49.6 °F 32.7 °F 30.05 in SSE 1.7 mph -999.0 mph 52 % 0 in
23:24 49.3 °F 31.9 °F 30.05 in Calm   -999.0 mph 51 % 0 in
23:39 48.2 °F 32.3 °F 30.05 in South 2.2 mph -999.0 mph 54 % 0 in
23:55 47.8 °F 32.0 °F 30.05 in SE 1.7 mph -999.0 mph 54 % 0 in
Big Bear CA Weather
Compliments of Weather Underground - 1.5 mb